createdAt,value
2023-05-10T00:02:35.000Z,8.56
2023-05-10T00:07:36.000Z,8.66
2023-05-10T00:12:35.000Z,8.7
2023-05-10T00:17:36.000Z,8.72
2023-05-10T00:22:35.000Z,8.79
2023-05-10T00:27:36.000Z,8.88
2023-05-10T00:32:36.000Z,8.87
2023-05-10T00:37:35.000Z,9
2023-05-10T00:42:36.000Z,8.75
2023-05-10T00:47:36.000Z,8.75
2023-05-10T00:52:35.000Z,8.48
2023-05-10T00:57:35.000Z,8.56
2023-05-10T01:02:36.000Z,8.52
2023-05-10T01:07:35.000Z,8.54
2023-05-10T01:12:36.000Z,8.46
2023-05-10T01:17:35.000Z,8.46
2023-05-10T01:22:36.000Z,8.56
2023-05-10T01:27:36.000Z,8.49
2023-05-10T01:32:36.000Z,8.45
2023-05-10T01:37:36.000Z,8.38
2023-05-10T01:42:36.000Z,8.49
2023-05-10T01:47:36.000Z,8.35
2023-05-10T01:52:35.000Z,8.35
2023-05-10T01:57:35.000Z,8.29
2023-05-10T02:02:36.000Z,8.42
2023-05-10T02:07:36.000Z,8.38
2023-05-10T02:12:36.000Z,8.46
2023-05-10T02:17:36.000Z,8.65
2023-05-10T02:22:37.000Z,8.79
2023-05-10T02:27:36.000Z,8.79
2023-05-10T02:32:36.000Z,8.78
2023-05-10T02:37:36.000Z,8.89
2023-05-10T02:42:36.000Z,8.96
2023-05-10T02:47:35.000Z,9.06
2023-05-10T02:52:36.000Z,9
2023-05-10T02:57:35.000Z,8.89
2023-05-10T03:02:36.000Z,8.96
2023-05-10T03:07:36.000Z,8.96
2023-05-10T03:12:36.000Z,9.09
2023-05-10T03:17:35.000Z,9.2
2023-05-10T03:22:35.000Z,9.42
2023-05-10T03:27:35.000Z,9.63
2023-05-10T03:32:37.000Z,9.74
2023-05-10T03:37:36.000Z,9.75
2023-05-10T03:42:35.000Z,9.84
2023-05-10T03:47:35.000Z,9.89
2023-05-10T03:52:36.000Z,10.04
2023-05-10T03:57:36.000Z,10.11
2023-05-10T04:02:35.000Z,10.28
2023-05-10T04:07:35.000Z,10.71
2023-05-10T04:12:36.000Z,11.04
2023-05-10T04:17:36.000Z,11.04
2023-05-10T04:22:35.000Z,11.25
2023-05-10T04:27:35.000Z,11.3
2023-05-10T04:32:35.000Z,11.48
2023-05-10T04:37:35.000Z,11.86
2023-05-10T04:42:35.000Z,12.13
2023-05-10T04:47:36.000Z,12.4
2023-05-10T04:52:36.000Z,12.79
2023-05-10T04:57:35.000Z,13.09
2023-05-10T05:02:36.000Z,13.54
2023-05-10T05:07:36.000Z,13.95
2023-05-10T05:12:36.000Z,14.2
2023-05-10T05:17:35.000Z,14.75
2023-05-10T05:22:35.000Z,15.58
2023-05-10T05:27:35.000Z,16.07
2023-05-10T05:32:36.000Z,16.07
2023-05-10T05:37:36.000Z,16.65
2023-05-10T05:42:36.000Z,17.16
2023-05-10T05:47:35.000Z,17.42
2023-05-10T05:52:35.000Z,17.71
2023-05-10T05:57:35.000Z,17.77
2023-05-10T06:02:35.000Z,17.82
2023-05-10T06:07:35.000Z,17.92
2023-05-10T06:12:36.000Z,18.26
2023-05-10T06:17:36.000Z,18.65
2023-05-10T06:22:36.000Z,19.18
2023-05-10T06:27:36.000Z,20.8
2023-05-10T06:32:36.000Z,22.94
2023-05-10T06:37:35.000Z,23.82
2023-05-10T06:42:36.000Z,23.84
2023-05-10T06:47:36.000Z,23.84
2023-05-10T06:52:35.000Z,23.55
2023-05-10T06:57:42.000Z,22.99
2023-05-10T07:02:36.000Z,23.23
2023-05-10T07:07:36.000Z,23.31
2023-05-10T07:12:36.000Z,23.46
2023-05-10T07:17:36.000Z,23.91
2023-05-10T07:22:35.000Z,25.04
2023-05-10T07:27:35.000Z,25.97
2023-05-10T07:32:36.000Z,26.89
2023-05-10T07:37:35.000Z,28.82
2023-05-10T07:42:35.000Z,28.76
2023-05-10T07:47:35.000Z,28.54
2023-05-10T07:52:35.000Z,28.54
2023-05-10T07:57:35.000Z,27.36
2023-05-10T08:02:36.000Z,26.92
2023-05-10T08:07:36.000Z,25.2
2023-05-10T08:12:36.000Z,24.64
2023-05-10T08:17:36.000Z,23.58
2023-05-10T08:22:36.000Z,24.71
2023-05-10T08:27:36.000Z,30.19
2023-05-10T08:32:35.000Z,34.2
2023-05-10T08:37:35.000Z,36.24
2023-05-10T08:42:36.000Z,35.04
2023-05-10T08:47:36.000Z,36.3
2023-05-10T08:52:35.000Z,36.39
2023-05-10T08:57:36.000Z,32.31
2023-05-10T09:02:37.000Z,29.56
2023-05-10T09:07:35.000Z,29.56
2023-05-10T09:12:35.000Z,26.98
2023-05-10T09:17:36.000Z,25.2
2023-05-10T09:22:36.000Z,23.86
2023-05-10T09:27:36.000Z,22.55
2023-05-10T09:32:36.000Z,21.74
2023-05-10T09:37:35.000Z,21.48
2023-05-10T09:42:36.000Z,21.33
2023-05-10T09:47:36.000Z,22.02
2023-05-10T09:52:35.000Z,22.4
2023-05-10T09:57:38.000Z,22.18
2023-05-10T10:02:36.000Z,21.54
2023-05-10T10:07:36.000Z,21.52
2023-05-10T10:12:36.000Z,21.1
2023-05-10T10:17:35.000Z,20.65
2023-05-10T10:22:36.000Z,20.65
2023-05-10T10:27:36.000Z,20.2
2023-05-10T10:32:36.000Z,20.23
2023-05-10T10:37:54.000Z,20.36
2023-05-10T10:42:36.000Z,20.59
2023-05-10T10:47:36.000Z,20.95
2023-05-10T10:52:36.000Z,21.05
2023-05-10T10:57:36.000Z,21.2
2023-05-10T11:02:35.000Z,21.1
2023-05-10T11:07:36.000Z,21.1
2023-05-10T11:12:36.000Z,21.3
2023-05-10T11:17:36.000Z,21.36
2023-05-10T11:22:36.000Z,21.27
2023-05-10T11:27:36.000Z,20.73
2023-05-10T11:32:36.000Z,20.88
2023-05-10T11:37:36.000Z,20.88
2023-05-10T11:42:35.000Z,21
2023-05-10T11:47:35.000Z,20.62
2023-05-10T11:52:36.000Z,20.22
2023-05-10T11:57:35.000Z,20.28
2023-05-10T12:02:36.000Z,20.22
2023-05-10T12:07:36.000Z,20.18
2023-05-10T12:12:36.000Z,20.23
2023-05-10T12:17:36.000Z,20.16
2023-05-10T12:22:36.000Z,19.77
2023-05-10T12:27:35.000Z,19.38
2023-05-10T12:32:35.000Z,19.34
2023-05-10T12:37:35.000Z,19.54
2023-05-10T12:42:36.000Z,19.54
2023-05-10T12:47:36.000Z,19.71
2023-05-10T12:52:35.000Z,19.71
2023-05-10T12:57:36.000Z,19.58
2023-05-10T13:02:36.000Z,19.6
2023-05-10T13:07:36.000Z,19.42
2023-05-10T13:12:35.000Z,19.45
2023-05-10T13:17:36.000Z,19.35
2023-05-10T13:22:50.000Z,19.07
2023-05-10T13:27:35.000Z,18.94
2023-05-10T13:32:35.000Z,19.23
2023-05-10T13:37:35.000Z,19.04
2023-05-10T13:42:35.000Z,19.05
2023-05-10T13:47:36.000Z,19.07
2023-05-10T13:52:36.000Z,18.95
2023-05-10T13:57:35.000Z,18.95
2023-05-10T14:02:36.000Z,18.5
2023-05-10T14:07:36.000Z,18.41
2023-05-10T14:12:36.000Z,18.33
2023-05-10T14:17:36.000Z,18.19
2023-05-10T14:22:35.000Z,18.27
2023-05-10T14:27:36.000Z,18.24
2023-05-10T14:32:38.000Z,18.01
2023-05-10T14:37:36.000Z,18.02
2023-05-10T14:42:35.000Z,18.03
2023-05-10T14:47:36.000Z,17.91
2023-05-10T14:53:22.000Z,17.8
2023-05-10T14:57:35.000Z,17.78
2023-05-10T15:02:36.000Z,17.78
2023-05-10T15:07:36.000Z,17.77
2023-05-10T15:12:36.000Z,17.7
2023-05-10T15:17:36.000Z,17.58
2023-05-10T15:22:36.000Z,17.34
2023-05-10T15:27:36.000Z,17.2
2023-05-10T15:32:36.000Z,17.13
2023-05-10T15:37:36.000Z,17.08
2023-05-10T15:42:35.000Z,17.14
2023-05-10T15:47:35.000Z,17.07
2023-05-10T15:52:35.000Z,17
2023-05-10T15:57:36.000Z,16.99
2023-05-10T16:02:36.000Z,16.91
2023-05-10T16:07:36.000Z,16.77
2023-05-10T16:12:35.000Z,16.77
2023-05-10T16:17:36.000Z,16.78
2023-05-10T16:22:35.000Z,16.73
2023-05-10T16:27:36.000Z,16.68
2023-05-10T16:32:36.000Z,16.62
2023-05-10T16:37:35.000Z,16.52
2023-05-10T16:42:35.000Z,16.41
2023-05-10T16:47:36.000Z,16.25
2023-05-10T16:52:35.000Z,16.05
2023-05-10T16:57:35.000Z,15.94
2023-05-10T17:02:36.000Z,15.87
2023-05-10T17:07:37.000Z,15.71
2023-05-10T17:12:35.000Z,15.51
2023-05-10T17:17:36.000Z,15.41
2023-05-10T17:22:36.000Z,15.41
2023-05-10T17:27:36.000Z,15.28
2023-05-10T17:32:35.000Z,15.16
2023-05-10T17:37:35.000Z,15.06
2023-05-10T17:42:36.000Z,14.95
2023-05-10T17:47:36.000Z,14.78
2023-05-10T17:52:35.000Z,14.69
2023-05-10T17:57:35.000Z,14.58
2023-05-10T18:02:36.000Z,14.49
2023-05-10T18:07:35.000Z,14.43
2023-05-10T18:12:35.000Z,14.33
2023-05-10T18:17:36.000Z,14.27
2023-05-10T18:22:35.000Z,14.21
2023-05-10T18:27:35.000Z,14.18
2023-05-10T18:32:35.000Z,14.16
2023-05-10T18:37:35.000Z,14.16
2023-05-10T18:42:36.000Z,14.11
2023-05-10T18:47:36.000Z,14.03
2023-05-10T18:52:35.000Z,14
2023-05-10T18:57:35.000Z,13.97
2023-05-10T19:02:35.000Z,13.83
2023-05-10T19:07:36.000Z,13.69
2023-05-10T19:12:36.000Z,13.61
2023-05-10T19:17:36.000Z,13.53
2023-05-10T19:22:55.000Z,13.46
2023-05-10T19:27:35.000Z,13.35
2023-05-10T19:32:35.000Z,13.26
2023-05-10T19:37:36.000Z,13.29
2023-05-10T19:42:35.000Z,13.31
2023-05-10T19:47:35.000Z,13.31
2023-05-10T19:52:36.000Z,13.29
2023-05-10T19:57:35.000Z,13.22
2023-05-10T20:02:35.000Z,13.17
2023-05-10T20:07:36.000Z,13.13
2023-05-10T20:12:35.000Z,13.02
2023-05-10T20:17:36.000Z,12.86
2023-05-10T20:22:35.000Z,12.84
2023-05-10T20:27:37.000Z,12.87
2023-05-10T20:32:36.000Z,12.9
2023-05-10T20:37:35.000Z,12.79
2023-05-10T20:42:36.000Z,12.65
2023-05-10T20:47:35.000Z,12.58
2023-05-10T20:52:35.000Z,12.61
2023-05-10T20:57:36.000Z,12.61
2023-05-10T21:02:35.000Z,12.64
2023-05-10T21:07:35.000Z,12.67
2023-05-10T21:12:35.000Z,12.62
2023-05-10T21:17:36.000Z,12.59
2023-05-10T21:22:35.000Z,12.59
2023-05-10T21:27:36.000Z,12.47
2023-05-10T21:32:36.000Z,12.37
2023-05-10T21:37:36.000Z,12.35
2023-05-10T21:42:36.000Z,12.5
2023-05-10T21:47:35.000Z,12.58
2023-05-10T21:52:36.000Z,12.58
2023-05-10T21:57:36.000Z,12.53
2023-05-10T22:02:36.000Z,12.26
2023-05-10T22:07:36.000Z,12.27
2023-05-10T22:12:36.000Z,12.27
2023-05-10T22:17:35.000Z,12.18
2023-05-10T22:22:35.000Z,12.1
2023-05-10T22:27:35.000Z,12.06
2023-05-10T22:32:36.000Z,12.13
2023-05-10T22:37:36.000Z,12.16
2023-05-10T22:42:35.000Z,12.16
2023-05-10T22:47:35.000Z,12.21
2023-05-10T22:52:35.000Z,12.11
2023-05-10T22:57:35.000Z,12.08
2023-05-10T23:02:36.000Z,12.01
2023-05-10T23:07:36.000Z,12.03
2023-05-10T23:12:35.000Z,11.93
2023-05-10T23:17:36.000Z,11.91
2023-05-10T23:22:36.000Z,11.91
2023-05-10T23:27:35.000Z,11.84
2023-05-10T23:32:36.000Z,11.48
2023-05-10T23:37:36.000Z,11.36
2023-05-10T23:42:36.000Z,11.25
2023-05-10T23:47:36.000Z,11.08
2023-05-10T23:52:36.000Z,10.95
2023-05-10T23:57:35.000Z,10.81
